Time;durP1;ratioP1;P1;durP2;ratioP2;P2;SDS_P1;SDS_P2;PMS_P1;PMS_P2;Temp;Humidity;BMP_temperature;BMP_pressure;BME280_temperature;BME280_humidity;BME280_pressure;Samples;Min_cycle;Max_cycle;Signal;HPM_P1;HPM_P2
2022/10/29 00:03:46;;;;;;;9.80;7.00;;;16.10;99.90;;;;;;10446572;28;20224;-83
2022/10/29 00:08:48;;;;;;;14.10;7.50;;;16.00;99.90;;;;;;10429647;28;20312;-84
2022/10/29 00:13:54;;;;;;;11.13;6.80;;;16.00;99.90;;;;;;10446737;28;20242;-81
2022/10/29 00:18:58;;;;;;;15.73;6.87;;;16.00;99.90;;;;;;10448500;28;20198;-82
2022/10/29 00:24:00;;;;;;;10.93;6.43;;;16.00;99.90;;;;;;10463900;28;20220;-82
2022/10/29 00:29:02;;;;;;;12.53;7.17;;;16.00;99.90;;;;;;10478343;28;20193;-82
2022/10/29 00:34:06;;;;;;;11.63;6.90;;;15.90;99.90;;;;;;10460945;28;20217;-81
2022/10/29 00:39:11;;;;;;;10.30;6.97;;;15.90;99.90;;;;;;10472355;28;20276;-82
2022/10/29 00:44:28;;;;;;;12.87;7.23;;;15.80;99.90;;;;;;10446183;28;20205;-81
2022/10/29 00:49:32;;;;;;;13.37;7.13;;;15.90;99.90;;;;;;10479063;28;20281;-82
2022/10/29 00:54:38;;;;;;;9.50;7.00;;;15.90;99.90;;;;;;10475506;28;20644;-82
2022/10/29 00:59:42;;;;;;;14.87;7.03;;;15.90;99.90;;;;;;10455945;28;20628;-80
2022/10/29 01:04:45;;;;;;;17.67;6.87;;;15.80;99.90;;;;;;10438324;28;20610;-81
2022/10/29 01:09:48;;;;;;;12.83;7.30;;;15.90;99.90;;;;;;10442454;28;20633;-84
2022/10/29 01:15:00;;;;;;;14.30;7.30;;;15.90;99.90;;;;;;10425638;28;20255;-84
2022/10/29 01:20:40;;;;;;;16.20;7.27;;;15.80;99.90;;;;;;10428645;28;20209;-83
2022/10/29 01:26:06;;;;;;;16.30;7.60;;;15.80;99.90;;;;;;10430460;28;20761;-81
2022/10/29 01:31:30;;;;;;;12.53;7.17;;;15.80;99.90;;;;;;10448587;28;20193;-81
2022/10/29 01:36:40;;;;;;;7.93;6.70;;;15.80;99.90;;;;;;10442547;28;20236;-82
2022/10/29 01:41:51;;;;;;;13.23;8.20;;;15.80;99.90;;;;;;10471364;28;20714;-81
2022/10/29 01:46:59;;;;;;;14.03;7.20;;;15.90;99.90;;;;;;10437779;28;20719;-81
2022/10/29 01:52:04;;;;;;;15.23;7.37;;;15.90;99.90;;;;;;10453060;28;20196;-82
2022/10/29 01:57:29;;;;;;;14.37;7.00;;;15.90;99.90;;;;;;10463526;28;20221;-82
2022/10/29 02:02:45;;;;;;;8.53;7.23;;;15.90;99.90;;;;;;10422227;28;20245;-80
2022/10/29 02:07:51;;;;;;;13.17;7.63;;;15.90;99.90;;;;;;10437593;28;20227;-82
2022/10/29 02:12:54;;;;;;;12.30;7.90;;;15.90;99.90;;;;;;10456355;28;20193;-81
2022/10/29 02:18:01;;;;;;;13.00;6.80;;;15.80;99.90;;;;;;10403943;28;20198;-83
2022/10/29 02:23:03;;;;;;;13.37;8.13;;;15.80;99.90;;;;;;10449441;28;20217;-80
2022/10/29 02:28:05;;;;;;;8.57;7.50;;;15.80;99.90;;;;;;10438009;28;20280;-81
2022/10/29 02:33:08;;;;;;;10.03;6.40;;;15.80;99.90;;;;;;10456740;28;20568;-81
2022/10/29 02:38:10;;;;;;;13.80;8.73;;;15.90;99.90;;;;;;10453765;28;20205;-81
2022/10/29 02:43:12;;;;;;;12.13;7.73;;;15.90;99.90;;;;;;10457357;28;20308;-81
2022/10/29 02:48:16;;;;;;;8.97;7.50;;;15.90;99.90;;;;;;10456203;28;20200;-82
2022/10/29 02:53:18;;;;;;;12.63;8.50;;;15.90;99.90;;;;;;10441011;28;20255;-81
2022/10/29 02:58:20;;;;;;;10.93;8.23;;;15.90;99.90;;;;;;10441410;28;20676;-82
2022/10/29 03:03:24;;;;;;;11.70;8.20;;;16.00;99.90;;;;;;10456031;28;20597;-82
2022/10/29 03:08:26;;;;;;;10.70;8.03;;;16.00;99.90;;;;;;10438656;28;20196;-82
2022/10/29 03:13:28;;;;;;;10.17;7.60;;;16.00;99.90;;;;;;10455997;28;20716;-82
2022/10/29 03:18:31;;;;;;;13.13;8.23;;;16.00;99.90;;;;;;10456728;28;20215;-82
2022/10/29 03:23:33;;;;;;;12.50;8.53;;;16.00;99.90;;;;;;10456643;28;20221;-81
2022/10/29 03:28:35;;;;;;;13.40;8.93;;;16.10;99.90;;;;;;10426825;28;20201;-80
2022/10/29 03:33:39;;;;;;;12.10;8.00;;;16.10;99.90;;;;;;10444600;28;20225;-81
2022/10/29 03:38:41;;;;;;;11.83;9.00;;;16.10;99.90;;;;;;10464285;28;20284;-81
2022/10/29 03:43:43;;;;;;;10.37;7.87;;;16.10;99.90;;;;;;10448255;28;20225;-81
2022/10/29 03:48:49;;;;;;;17.70;8.63;;;16.10;99.90;;;;;;10473130;28;20204;-81
2022/10/29 03:53:51;;;;;;;9.87;8.00;;;16.10;99.90;;;;;;10463190;28;20233;-81
2022/10/29 03:58:53;;;;;;;15.93;9.27;;;16.10;99.90;;;;;;10444076;28;20194;-80
2022/10/29 04:03:56;;;;;;;10.33;8.13;;;16.00;99.90;;;;;;10461276;28;20228;-79
2022/10/29 04:08:58;;;;;;;13.03;8.40;;;16.00;99.90;;;;;;10461768;28;20201;-82
2022/10/29 04:14:00;;;;;;;10.07;9.07;;;16.00;99.90;;;;;;10444142;28;20248;-80
2022/10/29 04:19:04;;;;;;;11.60;8.20;;;16.10;99.90;;;;;;10443995;28;20600;-81
2022/10/29 04:24:07;;;;;;;10.47;8.40;;;16.10;99.90;;;;;;10442403;28;20697;-79
2022/10/29 04:29:09;;;;;;;17.40;8.77;;;16.10;99.90;;;;;;10443298;28;20193;-80
2022/10/29 04:34:12;;;;;;;9.90;8.80;;;16.10;99.90;;;;;;10438958;28;20296;-80
2022/10/29 04:39:14;;;;;;;10.20;8.83;;;16.00;99.90;;;;;;10402559;28;20638;-81
2022/10/29 04:44:16;;;;;;;12.63;8.30;;;16.00;99.90;;;;;;10385434;28;20225;-82
2022/10/29 04:49:20;;;;;;;14.53;8.70;;;16.00;99.90;;;;;;10403258;28;20254;-80
2022/10/29 04:54:22;;;;;;;9.83;8.50;;;15.90;99.90;;;;;;10448196;28;20229;-82
2022/10/29 04:59:24;;;;;;;15.10;9.43;;;15.90;99.90;;;;;;10405370;28;20216;-78
2022/10/29 05:04:28;;;;;;;11.33;8.80;;;15.80;99.90;;;;;;10383317;28;20226;-80
2022/10/29 05:09:30;;;;;;;9.90;8.93;;;15.80;99.90;;;;;;10434407;28;20707;-81
2022/10/29 05:14:32;;;;;;;10.67;9.63;;;15.70;99.90;;;;;;10459594;28;20217;-79
2022/10/29 05:19:35;;;;;;;12.23;9.60;;;15.70;99.90;;;;;;10457846;28;20178;-78
2022/10/29 05:24:37;;;;;;;17.17;8.87;;;15.70;99.90;;;;;;10458230;28;20217;-80
2022/10/29 05:29:39;;;;;;;10.40;9.30;;;15.60;99.90;;;;;;10425464;28;20199;-81
2022/10/29 05:34:43;;;;;;;11.03;9.17;;;15.50;99.90;;;;;;10463118;28;20221;-82
2022/10/29 05:39:45;;;;;;;10.37;9.37;;;15.50;99.90;;;;;;10439199;28;20193;-82
2022/10/29 05:44:47;;;;;;;14.70;8.93;;;15.40;99.90;;;;;;10459747;28;20231;-83
2022/10/29 05:49:50;;;;;;;13.80;10.00;;;15.40;99.90;;;;;;10442240;28;20213;-83
2022/10/29 05:54:52;;;;;;;9.87;8.30;;;15.30;99.90;;;;;;10437861;28;20205;-81
2022/10/29 05:59:54;;;;;;;13.50;8.47;;;15.30;99.90;;;;;;10456604;28;20570;-82
2022/10/29 06:04:58;;;;;;;10.13;8.53;;;15.30;99.90;;;;;;10437770;28;20244;-82
2022/10/29 06:10:00;;;;;;;12.60;10.40;;;15.20;99.90;;;;;;10434997;28;20292;-80
2022/10/29 06:15:02;;;;;;;42.07;23.60;;;15.20;99.90;;;;;;10438136;28;20215;-80
2022/10/29 06:20:06;;;;;;;41.00;26.00;;;15.20;99.90;;;;;;10440757;28;20197;-81
2022/10/29 06:25:09;;;;;;;47.77;33.60;;;15.10;99.90;;;;;;10438380;28;20225;-81
2022/10/29 06:30:12;;;;;;;14.50;11.10;;;15.10;99.90;;;;;;10437693;28;20243;-81
2022/10/29 06:35:16;;;;;;;16.50;9.47;;;15.10;99.90;;;;;;10455719;28;20590;-81
2022/10/29 06:40:18;;;;;;;12.10;8.80;;;15.10;99.90;;;;;;10422396;28;20200;-81
2022/10/29 06:45:20;;;;;;;10.60;8.77;;;15.10;99.90;;;;;;10423156;28;20227;-80
2022/10/29 06:50:23;;;;;;;15.67;9.77;;;15.00;99.90;;;;;;10424592;28;20753;-81
2022/10/29 06:55:26;;;;;;;11.63;10.43;;;15.10;99.90;;;;;;10447107;28;20747;-82
2022/10/29 07:00:29;;;;;;;22.47;18.40;;;15.00;99.90;;;;;;10444268;28;20194;-82
2022/10/29 07:05:33;;;;;;;15.23;9.63;;;15.10;99.90;;;;;;10448642;28;20227;-80
2022/10/29 07:10:35;;;;;;;11.83;8.43;;;15.10;99.90;;;;;;10454317;28;20193;-80
2022/10/29 07:15:37;;;;;;;23.67;12.27;;;15.10;99.90;;;;;;10452956;28;20224;-81
2022/10/29 07:20:42;;;;;;;72.33;25.97;;;15.20;99.90;;;;;;10438022;28;20193;-81
2022/10/29 07:25:44;;;;;;;54.10;23.93;;;15.20;99.90;;;;;;10455017;28;20563;-81
2022/10/29 07:30:47;;;;;;;31.83;15.90;;;15.20;99.90;;;;;;10438091;28;20220;-81
2022/10/29 07:35:50;;;;;;;23.13;12.23;;;15.30;99.90;;;;;;10455748;28;20224;-81
2022/10/29 07:40:53;;;;;;;12.50;8.17;;;15.30;99.90;;;;;;10477723;28;20301;-80
2022/10/29 07:45:55;;;;;;;11.43;9.90;;;15.40;99.90;;;;;;10474200;28;20245;-82
2022/10/29 07:51:00;;;;;;;11.33;10.37;;;15.50;99.90;;;;;;10461052;28;20196;-82
2022/10/29 07:56:02;;;;;;;10.70;9.57;;;15.50;99.90;;;;;;10460288;28;20221;-81
2022/10/29 08:01:04;;;;;;;10.50;9.47;;;15.60;99.90;;;;;;10434838;28;20212;-81
2022/10/29 08:06:07;;;;;;;19.07;11.73;;;15.70;99.90;;;;;;10463465;28;20221;-82
2022/10/29 08:11:09;;;;;;;14.43;10.33;;;15.80;99.90;;;;;;10446957;28;20645;-81
2022/10/29 08:16:11;;;;;;;13.10;11.73;;;15.90;99.90;;;;;;10465241;28;20237;-81
2022/10/29 08:21:15;;;;;;;15.73;11.43;;;16.00;99.90;;;;;;10448742;28;20209;-81
2022/10/29 08:26:17;;;;;;;13.73;10.73;;;16.20;99.90;;;;;;10429310;28;20304;-81
2022/10/29 08:31:19;;;;;;;13.00;11.67;;;16.40;99.90;;;;;;10445081;28;20229;-80
2022/10/29 08:36:22;;;;;;;14.13;11.17;;;16.70;99.90;;;;;;10445480;28;20217;-81
2022/10/29 08:41:35;;;;;;;16.20;10.23;;;16.90;99.90;;;;;;10462483;28;20217;-81
2022/10/29 08:46:45;;;;;;;17.40;10.60;;;17.00;99.90;;;;;;10444089;28;20221;-82
2022/10/29 08:51:54;;;;;;;13.23;9.97;;;17.20;99.90;;;;;;10428341;28;20276;-82
2022/10/29 08:56:59;;;;;;;11.23;9.47;;;17.30;99.90;;;;;;10444024;28;20212;-81
2022/10/29 09:02:01;;;;;;;20.00;9.80;;;17.40;99.90;;;;;;10440888;28;20216;-82
2022/10/29 09:07:19;;;;;;;17.13;10.77;;;17.50;99.90;;;;;;10460853;28;21458;-81
2022/10/29 09:12:46;;;;;;;15.80;10.80;;;17.50;99.90;;;;;;10449763;28;20194;-81
2022/10/29 09:18:05;;;;;;;12.20;9.90;;;17.40;99.90;;;;;;10440006;28;20266;-81
2022/10/29 09:23:18;;;;;;;14.57;10.87;;;17.30;99.90;;;;;;10448679;28;20299;-81
2022/10/29 09:28:29;;;;;;;19.67;13.07;;;17.30;99.90;;;;;;10432490;28;20831;-81
2022/10/29 09:33:32;;;;;;;19.60;13.90;;;17.30;99.90;;;;;;10439310;28;20220;-82
2022/10/29 09:38:42;;;;;;;15.43;11.07;;;17.20;99.90;;;;;;10448408;28;20255;-82
2022/10/29 09:43:51;;;;;;;13.37;11.60;;;17.20;99.90;;;;;;10448312;28;20227;-82
2022/10/29 09:49:02;;;;;;;23.53;17.67;;;17.20;99.90;;;;;;10450721;28;20245;-82
2022/10/29 09:54:05;;;;;;;16.80;11.40;;;17.20;99.90;;;;;;10434458;28;20237;-82
2022/10/29 09:59:16;;;;;;;20.13;11.90;;;17.20;99.90;;;;;;10450283;28;20236;-82
2022/10/29 10:04:27;;;;;;;14.63;11.90;;;17.20;99.90;;;;;;10422249;28;20241;-82
2022/10/29 10:09:50;;;;;;;17.27;9.90;;;17.20;99.90;;;;;;10396943;28;20201;-83
2022/10/29 10:15:17;;;;;;;14.63;10.70;;;17.30;99.90;;;;;;10437903;28;20224;-83
2022/10/29 10:20:27;;;;;;;15.10;10.43;;;17.30;99.90;;;;;;10424879;28;20228;-84
2022/10/29 10:25:36;;;;;;;11.53;10.33;;;17.30;99.90;;;;;;10460390;28;20235;-84
2022/10/29 10:30:38;;;;;;;15.30;11.10;;;17.40;99.90;;;;;;10430557;28;20289;-83
2022/10/29 10:35:40;;;;;;;11.33;10.00;;;17.40;99.90;;;;;;10396951;28;20210;-80
2022/10/29 10:40:43;;;;;;;13.20;9.60;;;17.40;99.90;;;;;;10412075;28;20209;-81
2022/10/29 10:45:53;;;;;;;14.60;10.73;;;17.50;99.90;;;;;;10457312;28;20768;-81
2022/10/29 10:51:10;;;;;;;10.60;9.43;;;17.50;99.90;;;;;;10422954;28;20553;-81
2022/10/29 10:56:19;;;;;;;12.60;9.33;;;17.60;99.90;;;;;;10426889;28;20295;-81
2022/10/29 11:01:26;;;;;;;13.47;9.30;;;17.70;99.90;;;;;;10457430;28;20185;-84
2022/10/29 11:06:33;;;;;;;9.53;8.10;;;17.80;99.90;;;;;;10457161;28;20225;-82
2022/10/29 11:11:40;;;;;;;10.53;8.10;;;17.90;99.90;;;;;;10440103;28;20220;-82
2022/10/29 11:16:46;;;;;;;12.87;9.00;;;18.00;99.90;;;;;;10440824;28;20300;-81
2022/10/29 11:22:00;;;;;;;13.13;9.27;;;18.00;99.90;;;;;;10416160;28;20247;-84
2022/10/29 11:27:10;;;;;;;17.37;14.67;;;18.00;99.90;;;;;;10408565;28;20225;-80
2022/10/29 11:32:19;;;;;;;19.17;10.40;;;18.00;99.90;;;;;;10421850;28;20186;-80
2022/10/29 11:37:29;;;;;;;12.80;9.00;;;18.00;99.90;;;;;;10405461;28;20233;-81
2022/10/29 11:42:32;;;;;;;16.07;11.03;;;18.10;99.90;;;;;;10425326;28;20228;-82
2022/10/29 11:47:52;;;;;;;15.60;10.37;;;18.10;99.90;;;;;;10437585;28;20283;-81
2022/10/29 11:53:00;;;;;;;11.20;9.93;;;18.20;99.90;;;;;;10459891;28;20351;-81
2022/10/29 11:58:14;;;;;;;15.37;10.47;;;18.20;99.90;;;;;;10430702;28;20213;-80
2022/10/29 12:03:41;;;;;;;11.53;8.70;;;18.20;99.90;;;;;;10430094;28;20217;-81
2022/10/29 12:08:59;;;;;;;14.47;9.77;;;18.30;99.90;;;;;;10445871;28;20288;-81
2022/10/29 12:14:14;;;;;;;23.20;9.67;;;18.40;99.90;;;;;;10464430;28;20268;-81
2022/10/29 12:19:28;;;;;;;13.80;9.30;;;18.40;99.90;;;;;;10464978;28;20225;-81
2022/10/29 12:24:58;;;;;;;13.60;10.67;;;18.60;99.90;;;;;;10468831;28;20221;-80
2022/10/29 12:30:04;;;;;;;13.00;9.73;;;18.70;99.90;;;;;;10441752;28;20624;-82
2022/10/29 12:35:15;;;;;;;22.80;11.57;;;18.90;99.90;;;;;;10447644;28;20259;-82
2022/10/29 12:40:21;;;;;;;13.30;10.43;;;19.00;99.90;;;;;;10439031;28;20910;-81
2022/10/29 12:45:34;;;;;;;11.17;8.90;;;19.10;99.90;;;;;;10443416;28;20221;-81
2022/10/29 12:50:49;;;;;;;10.27;9.10;;;19.30;99.90;;;;;;10404908;28;20196;-81
2022/10/29 12:55:52;;;;;;;14.77;7.90;;;19.50;99.90;;;;;;10418564;28;20303;-81
2022/10/29 13:00:55;;;;;;;13.23;7.20;;;19.70;99.90;;;;;;10454932;28;20272;-81
2022/10/29 13:05:57;;;;;;;12.30;7.93;;;19.90;99.90;;;;;;10450314;28;20601;-82
2022/10/29 13:11:00;;;;;;;18.43;7.50;;;20.10;99.90;;;;;;10429203;28;20185;-81
2022/10/29 13:16:12;;;;;;;12.40;6.20;;;20.20;99.90;;;;;;10464775;28;20206;-81
2022/10/29 13:21:53;;;;;;;13.80;7.57;;;20.30;99.90;;;;;;10429313;28;20207;-80
2022/10/29 13:26:57;;;;;;;10.07;7.40;;;20.40;99.90;;;;;;10464920;28;20312;-81
2022/10/29 13:32:02;;;;;;;12.30;8.13;;;20.50;99.90;;;;;;10429631;28;20193;-81
2022/10/29 13:37:56;;;;;;;12.57;7.00;;;20.60;99.90;;;;;;10446270;28;20705;-82
2022/10/29 13:43:02;;;;;;;13.80;7.63;;;20.60;99.90;;;;;;10433511;28;20339;-82
2022/10/29 13:48:11;;;;;;;13.50;8.00;;;20.60;99.90;;;;;;10446692;28;20197;-81
2022/10/29 13:53:15;;;;;;;9.83;7.50;;;20.70;99.90;;;;;;10464654;28;20252;-82
2022/10/29 13:58:27;;;;;;;11.43;7.40;;;20.70;99.90;;;;;;10466508;28;20193;-78
2022/10/29 14:03:39;;;;;;;13.07;7.90;;;20.60;99.90;;;;;;10464132;28;20221;-80
2022/10/29 14:08:49;;;;;;;13.43;9.13;;;20.40;99.90;;;;;;10443480;28;20205;-82
2022/10/29 14:13:54;;;;;;;10.33;7.40;;;20.30;99.90;;;;;;10463315;28;20267;-81
2022/10/29 14:18:58;;;;;;;10.27;6.67;;;20.10;99.90;;;;;;10424206;28;20197;-81
2022/10/29 14:24:01;;;;;;;9.43;7.40;;;19.90;99.90;;;;;;10442556;28;20225;-82
2022/10/29 14:29:14;;;;;;;14.43;9.03;;;19.80;99.90;;;;;;10444909;28;20209;-82
2022/10/29 14:34:27;;;;;;;19.27;8.30;;;19.80;99.90;;;;;;10464181;28;20729;-83
2022/10/29 14:39:33;;;;;;;14.57;8.60;;;19.70;99.90;;;;;;10460532;28;20276;-82
2022/10/29 14:44:38;;;;;;;10.90;8.47;;;19.70;99.90;;;;;;10440451;28;20241;-82
2022/10/29 14:49:47;;;;;;;21.93;10.17;;;19.60;99.90;;;;;;10442823;28;20721;-83
2022/10/29 14:54:50;;;;;;;9.83;8.60;;;19.50;99.90;;;;;;10462239;28;20220;-82
2022/10/29 14:59:56;;;;;;;16.80;10.27;;;19.40;99.90;;;;;;10443483;28;20190;-81
2022/10/29 15:05:00;;;;;;;15.97;8.90;;;19.50;99.90;;;;;;10462370;28;20239;-81
2022/10/29 15:10:16;;;;;;;8.40;6.57;;;19.50;99.90;;;;;;10463314;28;20204;-83
2022/10/29 15:15:24;;;;;;;12.50;9.57;;;19.50;99.90;;;;;;10464072;28;20208;-81
2022/10/29 15:20:32;;;;;;;12.70;8.40;;;19.60;99.90;;;;;;10439774;28;20564;-80
2022/10/29 15:25:36;;;;;;;15.37;10.03;;;19.60;99.90;;;;;;10439016;28;20225;-80
2022/10/29 15:30:40;;;;;;;15.07;9.70;;;19.60;99.90;;;;;;10428787;28;20193;-80
2022/10/29 15:35:50;;;;;;;20.37;9.00;;;19.50;99.90;;;;;;10466309;28;20213;-82
2022/10/29 15:41:30;;;;;;;13.67;9.30;;;19.50;99.90;;;;;;10465959;28;20193;-81
2022/10/29 15:46:44;;;;;;;15.17;9.77;;;19.50;99.90;;;;;;10466030;28;20274;-82
2022/10/29 15:51:47;;;;;;;13.23;9.13;;;19.40;99.90;;;;;;10449619;28;20201;-83
2022/10/29 15:56:51;;;;;;;26.47;10.83;;;19.40;99.90;;;;;;10428053;28;20241;-83
2022/10/29 16:01:53;;;;;;;12.00;9.60;;;19.30;99.90;;;;;;10462006;28;20205;-80
2022/10/29 16:06:57;;;;;;;13.37;9.10;;;19.20;99.90;;;;;;10445505;28;20308;-82
2022/10/29 16:11:59;;;;;;;18.20;12.00;;;19.10;99.90;;;;;;10461860;28;20193;-83
2022/10/29 16:17:01;;;;;;;27.00;13.20;;;19.00;99.90;;;;;;10448245;28;20217;-82
2022/10/29 16:22:04;;;;;;;16.00;11.20;;;18.90;99.90;;;;;;10459550;28;20763;-80
2022/10/29 16:27:13;;;;;;;30.87;15.00;;;18.80;99.90;;;;;;10443431;28;20571;-82
2022/10/29 16:32:16;;;;;;;23.43;12.37;;;18.80;99.90;;;;;;10447178;28;20201;-82
2022/10/29 16:37:20;;;;;;;12.97;10.50;;;18.70;99.90;;;;;;10429702;28;20209;-81
2022/10/29 16:42:30;;;;;;;22.33;14.07;;;18.60;99.90;;;;;;10430442;28;20220;-82
2022/10/29 16:47:32;;;;;;;12.20;8.57;;;18.60;99.90;;;;;;10465870;28;20224;-82
2022/10/29 16:52:35;;;;;;;22.43;10.10;;;18.50;99.90;;;;;;10465051;28;20267;-80
2022/10/29 16:57:37;;;;;;;11.30;8.30;;;18.50;99.90;;;;;;10464903;28;20213;-82
2022/10/29 17:02:43;;;;;;;18.80;8.63;;;18.40;99.90;;;;;;10429751;28;20189;-82
2022/10/29 17:07:46;;;;;;;13.70;8.80;;;18.40;99.90;;;;;;10447080;28;20224;-81
2022/10/29 17:12:49;;;;;;;11.40;7.80;;;18.40;99.90;;;;;;10464829;28;20201;-81
2022/10/29 17:17:51;;;;;;;15.90;8.70;;;18.40;99.90;;;;;;10464637;28;20217;-81
2022/10/29 17:22:54;;;;;;;14.67;9.60;;;18.40;99.90;;;;;;10449509;28;20240;-79
2022/10/29 17:27:56;;;;;;;12.43;8.53;;;18.40;99.90;;;;;;10469648;28;20200;-82
2022/10/29 17:32:58;;;;;;;20.40;10.60;;;18.40;99.90;;;;;;10467489;28;20252;-82
2022/10/29 17:38:02;;;;;;;10.37;9.07;;;18.40;99.90;;;;;;10432914;28;20189;-82
2022/10/29 17:43:04;;;;;;;17.83;10.27;;;18.30;99.90;;;;;;10444883;28;20292;-82
2022/10/29 17:48:07;;;;;;;16.17;10.70;;;18.30;99.90;;;;;;10463883;28;20219;-82
2022/10/29 17:53:10;;;;;;;16.97;10.17;;;18.20;99.90;;;;;;10443482;28;20273;-82
2022/10/29 17:58:12;;;;;;;17.43;10.43;;;18.20;99.90;;;;;;10430966;28;20232;-82
2022/10/29 18:03:15;;;;;;;13.83;10.60;;;18.10;99.90;;;;;;10432632;28;20720;-82
2022/10/29 18:08:18;;;;;;;13.43;10.43;;;18.10;99.90;;;;;;10453857;28;20194;-82
2022/10/29 18:13:20;;;;;;;13.50;9.53;;;18.10;99.90;;;;;;10475738;28;20605;-80
2022/10/29 18:18:22;;;;;;;14.40;9.33;;;18.00;99.90;;;;;;10447271;28;20205;-82
2022/10/29 18:23:25;;;;;;;15.60;10.00;;;18.00;99.90;;;;;;10461491;28;20220;-81
2022/10/29 18:28:28;;;;;;;22.37;14.80;;;18.00;99.90;;;;;;10441987;28;20610;-81
2022/10/29 18:33:30;;;;;;;16.40;11.43;;;17.90;99.90;;;;;;10441557;28;20694;-82
2022/10/29 18:38:33;;;;;;;23.23;14.80;;;17.90;99.90;;;;;;10461030;28;20221;-82
2022/10/29 18:43:35;;;;;;;42.73;26.07;;;17.90;99.90;;;;;;10425593;28;20693;-79
2022/10/29 18:48:39;;;;;;;20.40;14.17;;;17.80;99.90;;;;;;10443122;28;20200;-81
2022/10/29 18:53:43;;;;;;;19.33;15.20;;;17.80;99.90;;;;;;10460224;28;20569;-82
2022/10/29 18:58:45;;;;;;;28.53;18.50;;;17.80;99.90;;;;;;10442386;28;20197;-80
2022/10/29 19:03:49;;;;;;;26.10;18.57;;;17.70;99.90;;;;;;10435772;28;20319;-80
2022/10/29 19:08:53;;;;;;;26.77;16.70;;;17.70;99.90;;;;;;10441531;28;20197;-80
2022/10/29 19:13:57;;;;;;;20.70;18.17;;;17.70;99.90;;;;;;10457676;28;20237;-80
2022/10/29 19:19:01;;;;;;;26.63;22.33;;;17.60;99.90;;;;;;10459494;28;20197;-80
2022/10/29 19:24:05;;;;;;;20.87;18.20;;;17.60;99.90;;;;;;10458236;28;20220;-80
2022/10/29 19:29:07;;;;;;;18.80;13.53;;;17.60;99.90;;;;;;10452620;28;20665;-79
2022/10/29 19:34:10;;;;;;;13.73;9.77;;;17.60;99.90;;;;;;10457071;28;20860;-80
2022/10/29 19:39:13;;;;;;;13.90;9.80;;;17.50;99.90;;;;;;10476450;28;20205;-81
2022/10/29 19:44:15;;;;;;;16.87;11.90;;;17.50;99.90;;;;;;10476034;28;20221;-80
2022/10/29 19:49:17;;;;;;;16.97;11.60;;;17.50;99.90;;;;;;10442395;28;20642;-80
2022/10/29 19:54:21;;;;;;;14.60;10.73;;;17.40;99.90;;;;;;10458003;28;20209;-80
2022/10/29 19:59:23;;;;;;;12.57;9.90;;;17.40;99.90;;;;;;10458231;28;20201;-80
2022/10/29 20:04:25;;;;;;;19.77;9.37;;;17.40;99.90;;;;;;10458734;28;20221;-82
2022/10/29 20:09:29;;;;;;;20.60;13.23;;;17.40;99.90;;;;;;10442661;28;20242;-82
2022/10/29 20:14:34;;;;;;;18.53;11.40;;;17.30;99.90;;;;;;10436331;28;20231;-82
2022/10/29 20:19:36;;;;;;;10.17;9.13;;;17.30;99.90;;;;;;10435566;28;20256;-83
2022/10/29 20:24:39;;;;;;;17.23;9.33;;;17.30;99.90;;;;;;10435473;28;20217;-82
2022/10/29 20:29:41;;;;;;;20.57;8.77;;;17.20;99.90;;;;;;10435251;28;20197;-82
2022/10/29 20:34:44;;;;;;;14.43;8.70;;;17.20;99.90;;;;;;10435648;28;20697;-82
2022/10/29 20:39:47;;;;;;;14.70;9.53;;;17.20;99.90;;;;;;10453391;28;20584;-82
2022/10/29 20:44:49;;;;;;;42.33;19.80;;;17.20;99.90;;;;;;10434446;28;20336;-81
2022/10/29 20:49:51;;;;;;;17.80;9.70;;;17.10;99.90;;;;;;10465807;28;20657;-82
2022/10/29 20:54:54;;;;;;;14.53;8.97;;;17.10;99.90;;;;;;10448184;28;20221;-82
2022/10/29 20:59:57;;;;;;;15.37;9.47;;;17.10;99.90;;;;;;10466514;28;20193;-81
2022/10/29 21:04:59;;;;;;;13.87;9.20;;;17.10;99.90;;;;;;10448253;28;20228;-81
2022/10/29 21:10:02;;;;;;;16.77;9.53;;;17.10;99.90;;;;;;10447005;28;20200;-82
2022/10/29 21:15:05;;;;;;;17.07;8.77;;;17.10;99.90;;;;;;10446696;28;20304;-81
2022/10/29 21:20:08;;;;;;;13.40;8.73;;;17.00;99.90;;;;;;10447253;28;20224;-82
2022/10/29 21:25:11;;;;;;;11.00;9.67;;;17.00;99.90;;;;;;10429072;28;20712;-81
2022/10/29 21:30:14;;;;;;;14.57;9.20;;;17.00;99.90;;;;;;10446136;28;20280;-82
2022/10/29 21:35:16;;;;;;;14.30;8.27;;;17.00;99.90;;;;;;10445705;28;20232;-81
2022/10/29 21:40:19;;;;;;;11.47;7.90;;;17.00;99.90;;;;;;10430500;28;20197;-81
2022/10/29 21:45:21;;;;;;;16.33;9.03;;;17.00;99.90;;;;;;10464124;28;20305;-81
2022/10/29 21:50:23;;;;;;;22.10;10.43;;;17.00;99.90;;;;;;10464196;28;20201;-81
2022/10/29 21:55:27;;;;;;;18.70;11.73;;;17.00;99.90;;;;;;10428202;28;20603;-81
2022/10/29 22:00:30;;;;;;;29.60;12.03;;;16.90;99.90;;;;;;10444317;28;20197;-80
2022/10/29 22:05:32;;;;;;;28.13;16.00;;;16.90;99.90;;;;;;10426254;28;20214;-81
2022/10/29 22:10:35;;;;;;;18.47;12.50;;;16.80;99.90;;;;;;10442548;28;20696;-80
2022/10/29 22:15:37;;;;;;;18.30;10.77;;;16.80;99.90;;;;;;10460361;28;20210;-80
2022/10/29 22:20:39;;;;;;;13.80;7.73;;;16.80;99.90;;;;;;10444689;28;20190;-80
2022/10/29 22:25:48;;;;;;;14.63;8.73;;;16.80;99.90;;;;;;10464255;28;20245;-81
2022/10/29 22:30:57;;;;;;;25.70;12.73;;;16.80;99.90;;;;;;10473232;28;20705;-81
2022/10/29 22:36:05;;;;;;;14.03;8.30;;;16.70;99.90;;;;;;10455732;28;20224;-81
2022/10/29 22:41:10;;;;;;;31.40;13.27;;;16.70;99.90;;;;;;10473736;28;20261;-81
2022/10/29 22:46:14;;;;;;;26.70;13.40;;;16.70;99.90;;;;;;10472531;28;20658;-81
2022/10/29 22:51:18;;;;;;;30.00;12.73;;;16.60;99.90;;;;;;10456321;28;20201;-81
2022/10/29 22:56:23;;;;;;;18.37;9.00;;;16.60;99.90;;;;;;10456219;28;20243;-81
2022/10/29 23:01:27;;;;;;;13.83;8.33;;;16.60;99.90;;;;;;10474065;28;20211;-81
2022/10/29 23:06:30;;;;;;;12.90;6.40;;;16.50;99.90;;;;;;10479739;28;20245;-81
2022/10/29 23:11:37;;;;;;;16.13;7.43;;;16.50;99.90;;;;;;10450186;28;20629;-82
2022/10/29 23:16:39;;;;;;;16.93;7.27;;;16.50;99.90;;;;;;10432578;28;20217;-82
2022/10/29 23:21:41;;;;;;;13.97;7.27;;;16.50;99.90;;;;;;10449701;28;20236;-81
2022/10/29 23:26:45;;;;;;;16.23;6.57;;;16.40;99.90;;;;;;10448451;28;20268;-80
2022/10/29 23:31:47;;;;;;;16.03;6.27;;;16.40;99.90;;;;;;10429750;28;20689;-81
2022/10/29 23:36:49;;;;;;;12.57;7.27;;;16.40;99.90;;;;;;10463820;28;20220;-81
2022/10/29 23:41:52;;;;;;;11.63;7.63;;;16.40;99.90;;;;;;10446819;28;20684;-80
2022/10/29 23:46:54;;;;;;;8.97;5.90;;;16.40;99.90;;;;;;10464280;28;20276;-81
2022/10/29 23:51:56;;;;;;;14.70;7.37;;;16.40;99.90;;;;;;10472525;28;20201;-82
2022/10/29 23:57:00;;;;;;;15.47;6.27;;;16.30;99.90;;;;;;10463927;28;20209;-81
